createdAt,value
2022-08-16T00:01:34.223Z,62.86
2022-08-16T00:04:12.642Z,63.40
2022-08-16T00:06:44.633Z,63.12
2022-08-16T00:09:17.073Z,63.43
2022-08-16T00:11:52.803Z,63.71
2022-08-16T00:14:31.098Z,64.33
2022-08-16T00:17:18.621Z,63.82
2022-08-16T00:19:53.789Z,63.77
2022-08-16T00:22:27.854Z,63.88
2022-08-16T00:24:59.877Z,63.99
2022-08-16T00:27:32.149Z,63.86
2022-08-16T00:30:19.404Z,63.98
2022-08-16T00:32:57.199Z,64.13
2022-08-16T00:35:34.985Z,64.22
2022-08-16T00:38:40.785Z,64.05
2022-08-16T00:41:01.389Z,64.44
2022-08-16T00:43:42.685Z,64.50
2022-08-16T00:46:34.923Z,64.92
2022-08-16T00:49:17.766Z,64.85
2022-08-16T00:51:55.226Z,64.79
2022-08-16T00:54:29.976Z,65.63
2022-08-16T00:57:07.172Z,65.75
2022-08-16T00:59:58.657Z,65.54
2022-08-16T01:02:33.386Z,65.61
2022-08-16T01:05:10.877Z,65.83
2022-08-16T01:07:52.129Z,65.86
2022-08-16T01:10:32.096Z,66.35
2022-08-16T01:13:05.591Z,66.33
2022-08-16T01:15:43.051Z,66.38
2022-08-16T01:18:40.229Z,66.60
2022-08-16T01:21:39.731Z,66.94
2022-08-16T01:24:44.434Z,66.42
2022-08-16T01:27:22.372Z,66.47
2022-08-16T01:30:20.149Z,66.56
2022-08-16T01:33:14.216Z,66.44
2022-08-16T01:35:56.207Z,66.80
2022-08-16T01:38:33.246Z,66.82
2022-08-16T01:41:06.094Z,66.55
2022-08-16T01:43:42.480Z,66.87
2022-08-16T01:46:40.836Z,67.96
2022-08-16T01:49:43.510Z,67.42
2022-08-16T01:52:27.762Z,67.30
2022-08-16T01:55:21.909Z,68.17
2022-08-16T01:57:56.426Z,67.49
2022-08-16T02:00:29.876Z,67.87
2022-08-16T02:03:04.248Z,67.93
2022-08-16T02:05:36.884Z,68.25
2022-08-16T02:08:09.147Z,68.56
2022-08-16T02:11:04.965Z,69.11
2022-08-16T02:13:41.838Z,68.72
2022-08-16T02:16:18.501Z,68.75
2022-08-16T02:18:51.960Z,68.81
2022-08-16T02:21:31.739Z,69.01
2022-08-16T02:24:32.211Z,68.94
2022-08-16T02:26:57.659Z,69.22
2022-08-16T02:29:32.064Z,69.45
2022-08-16T02:32:49.933Z,69.29
2022-08-16T02:34:57.608Z,69.36
2022-08-16T02:37:51.646Z,69.44
2022-08-16T02:40:24.425Z,69.53
2022-08-16T02:42:57.683Z,69.70
2022-08-16T02:45:29.672Z,69.75
2022-08-16T02:48:28.514Z,69.27
2022-08-16T02:51:06.756Z,69.29
2022-08-16T02:53:46.540Z,69.28
2022-08-16T02:56:18.823Z,69.06
2022-08-16T02:58:52.507Z,68.75
2022-08-16T03:01:33.877Z,68.40
2022-08-16T03:04:41.057Z,68.43
2022-08-16T03:07:14.338Z,68.54
2022-08-16T03:09:48.526Z,68.95
2022-08-16T03:12:30.330Z,69.07
2022-08-16T03:15:10.785Z,69.50
2022-08-16T03:17:53.129Z,69.67
2022-08-16T03:20:32.327Z,69.75
2022-08-16T03:23:06.900Z,70.10
2022-08-16T03:25:43.216Z,70.33
2022-08-16T03:28:17.869Z,70.55
2022-08-16T03:30:51.801Z,70.49
2022-08-16T03:33:29.965Z,70.51
2022-08-16T03:36:29.742Z,70.54
2022-08-16T03:39:01.800Z,70.62
2022-08-16T03:41:44.502Z,70.64
2022-08-16T03:44:43.311Z,70.87
2022-08-16T03:47:19.035Z,70.92
2022-08-16T03:49:52.455Z,70.82
2022-08-16T03:52:31.485Z,70.69
2022-08-16T03:55:05.910Z,70.83
2022-08-16T03:57:42.647Z,70.55
2022-08-16T04:00:40.894Z,70.70
2022-08-16T04:03:18.838Z,70.54
2022-08-16T04:05:51.266Z,70.75
2022-08-16T04:08:27.199Z,70.65
2022-08-16T04:11:03.998Z,70.56
2022-08-16T04:13:58.728Z,70.69
2022-08-16T04:16:32.481Z,70.29
2022-08-16T04:19:26.097Z,70.48
2022-08-16T04:22:08.791Z,70.21
2022-08-16T04:24:55.039Z,70.54
2022-08-16T04:27:31.597Z,70.48
2022-08-16T04:30:11.074Z,70.76
2022-08-16T04:32:49.204Z,70.44
2022-08-16T04:35:23.491Z,70.75
2022-08-16T04:37:58.217Z,71.01
2022-08-16T04:40:37.090Z,70.84
2022-08-16T04:43:10.167Z,71.35
2022-08-16T04:45:43.103Z,71.37
2022-08-16T04:48:21.810Z,71.58
2022-08-16T04:51:07.867Z,71.77
2022-08-16T04:53:55.078Z,71.83
2022-08-16T04:56:28.006Z,71.84
2022-08-16T04:59:00.706Z,72.24
2022-08-16T05:01:56.070Z,72.38
2022-08-16T05:04:26.300Z,72.57
2022-08-16T05:07:02.159Z,72.81
2022-08-16T05:09:59.815Z,72.99
2022-08-16T05:12:33.455Z,72.89
2022-08-16T05:15:06.353Z,72.78
2022-08-16T05:17:42.621Z,72.83
2022-08-16T05:20:35.705Z,72.90
2022-08-16T05:23:11.969Z,72.95
2022-08-16T05:25:47.879Z,73.13
2022-08-16T05:28:21.695Z,73.28
2022-08-16T05:31:03.023Z,73.19
2022-08-16T05:33:38.986Z,73.30
2022-08-16T05:36:14.741Z,73.34
2022-08-16T05:38:55.315Z,73.38
2022-08-16T05:41:30.782Z,73.69
2022-08-16T05:44:22.466Z,73.85
2022-08-16T05:47:02.811Z,74.35
2022-08-16T05:49:38.273Z,74.29
2022-08-16T05:52:13.795Z,74.36
2022-08-16T05:55:01.146Z,74.47
2022-08-16T05:57:34.713Z,74.57
2022-08-16T06:00:10.958Z,74.50
2022-08-16T06:02:45.685Z,74.11
2022-08-16T06:05:41.426Z,73.88
2022-08-16T06:08:32.059Z,73.62
2022-08-16T06:11:10.247Z,72.99
2022-08-16T06:13:45.739Z,72.12
2022-08-16T06:16:23.252Z,71.88
2022-08-16T06:18:59.475Z,71.69
2022-08-16T06:21:38.507Z,71.31
2022-08-16T06:24:52.891Z,71.61
2022-08-16T06:27:03.669Z,71.73
2022-08-16T06:29:38.120Z,71.76
2022-08-16T06:32:11.751Z,71.64
2022-08-16T06:35:02.343Z,71.72
2022-08-16T06:37:37.816Z,71.68
2022-08-16T06:40:15.989Z,71.95
2022-08-16T06:42:57.301Z,71.89
2022-08-16T06:45:50.843Z,71.30
2022-08-16T06:48:33.211Z,71.31
2022-08-16T06:51:08.647Z,71.21
2022-08-16T06:53:41.929Z,70.93
2022-08-16T06:56:23.295Z,70.28
2022-08-16T06:59:11.240Z,69.41
2022-08-16T07:01:54.795Z,68.94
2022-08-16T07:04:33.401Z,68.26
2022-08-16T07:07:23.103Z,67.62
2022-08-16T07:09:55.453Z,67.42
2022-08-16T07:12:36.680Z,67.00
2022-08-16T07:15:19.831Z,66.78
2022-08-16T07:17:57.432Z,66.55
2022-08-16T07:20:37.574Z,66.09
2022-08-16T07:23:37.046Z,66.16
2022-08-16T07:26:25.471Z,65.86
2022-08-16T07:29:00.752Z,65.84
2022-08-16T07:31:38.142Z,65.52
2022-08-16T07:34:13.061Z,64.77
2022-08-16T07:36:45.682Z,64.06
2022-08-16T07:39:33.671Z,63.38
2022-08-16T07:42:07.098Z,62.82
2022-08-16T07:44:50.712Z,62.33
2022-08-16T07:47:24.684Z,61.79
2022-08-16T07:50:07.360Z,61.85
2022-08-16T07:52:41.326Z,61.08
2022-08-16T07:55:15.526Z,60.59
2022-08-16T07:58:00.691Z,59.27
2022-08-16T08:00:37.987Z,58.55
2022-08-16T08:03:13.631Z,58.54
2022-08-16T08:05:47.904Z,58.82
2022-08-16T08:08:51.178Z,58.81
2022-08-16T08:11:13.202Z,59.54
2022-08-16T08:13:54.167Z,59.46
2022-08-16T08:16:30.377Z,59.69
2022-08-16T08:19:04.036Z,59.34
2022-08-16T08:21:59.426Z,59.61
2022-08-16T08:24:44.100Z,59.16
2022-08-16T08:27:22.430Z,58.89
2022-08-16T08:30:49.071Z,58.56
2022-08-16T08:32:59.806Z,59.20
2022-08-16T08:35:36.665Z,58.98
2022-08-16T08:38:10.316Z,58.55
2022-08-16T08:40:50.620Z,58.55
2022-08-16T08:43:22.953Z,58.38
2022-08-16T08:46:01.115Z,57.83
2022-08-16T08:48:36.936Z,57.53
2022-08-16T08:51:18.777Z,57.18
2022-08-16T08:53:59.064Z,56.91
2022-08-16T08:56:34.775Z,56.91
2022-08-16T08:59:34.024Z,56.45
2022-08-16T09:02:16.726Z,56.20
2022-08-16T09:04:55.880Z,56.18
2022-08-16T09:07:30.191Z,56.08
2022-08-16T09:10:22.703Z,55.78
2022-08-16T09:13:01.977Z,55.25
2022-08-16T09:15:44.400Z,54.67
2022-08-16T09:18:25.094Z,54.42
2022-08-16T09:21:01.797Z,54.35
2022-08-16T09:23:36.459Z,53.81
2022-08-16T09:26:44.192Z,53.55
2022-08-16T09:29:15.187Z,53.49
2022-08-16T09:31:53.359Z,52.84
2022-08-16T09:34:26.143Z,52.95
2022-08-16T09:36:58.174Z,52.91
2022-08-16T09:39:42.089Z,52.75
2022-08-16T09:42:15.634Z,52.31
2022-08-16T09:45:10.569Z,51.71
2022-08-16T09:47:57.724Z,51.54
2022-08-16T09:50:36.991Z,51.32
2022-08-16T09:53:16.613Z,50.98
2022-08-16T09:55:52.325Z,50.07
2022-08-16T09:58:41.912Z,50.13
2022-08-16T10:01:21.069Z,50.05
2022-08-16T10:04:02.084Z,49.92
2022-08-16T10:06:35.518Z,50.16
2022-08-16T10:09:10.555Z,50.17
2022-08-16T10:12:11.104Z,50.04
2022-08-16T10:14:46.027Z,49.98
2022-08-16T10:17:18.741Z,49.79
2022-08-16T10:19:51.962Z,49.79
2022-08-16T10:22:23.932Z,49.67
2022-08-16T10:25:00.011Z,49.94
2022-08-16T10:27:46.938Z,49.82
2022-08-16T10:30:25.615Z,49.75
2022-08-16T10:32:58.597Z,49.31
2022-08-16T10:35:32.851Z,49.46
2022-08-16T10:38:06.735Z,49.68
2022-08-16T10:40:45.582Z,49.32
2022-08-16T10:43:18.641Z,49.19
2022-08-16T10:45:59.989Z,49.27
2022-08-16T10:48:32.787Z,49.12
2022-08-16T10:51:05.457Z,49.19
2022-08-16T10:53:40.898Z,49.17
2022-08-16T10:56:49.479Z,48.71
2022-08-16T11:05:08.569Z,47.98
2022-08-16T11:07:52.186Z,47.81
2022-08-16T11:19:13.149Z,47.51
2022-08-16T11:24:43.141Z,47.25
2022-08-16T11:27:23.579Z,46.42
2022-08-16T11:29:56.794Z,46.27
2022-08-16T11:32:32.087Z,45.73
2022-08-16T11:35:13.419Z,45.53
2022-08-16T11:38:06.026Z,45.79
2022-08-16T11:40:58.994Z,46.24
2022-08-16T11:43:34.060Z,45.72
2022-08-16T11:46:44.563Z,45.91
2022-08-16T11:49:03.524Z,46.10
2022-08-16T11:51:35.562Z,46.38
2022-08-16T11:54:09.020Z,46.38
2022-08-16T11:56:57.443Z,46.71
2022-08-16T11:59:30.245Z,47.13
2022-08-16T12:02:32.214Z,47.53
2022-08-16T12:04:58.811Z,47.80
2022-08-16T12:07:33.350Z,47.84
2022-08-16T12:10:10.893Z,48.71
2022-08-16T12:12:43.633Z,48.54
2022-08-16T12:15:20.259Z,47.97
2022-08-16T12:17:55.212Z,48.29
2022-08-16T12:20:30.276Z,49.08
2022-08-16T12:23:06.809Z,48.98
2022-08-16T12:25:39.618Z,49.09
2022-08-16T12:28:12.181Z,49.37
2022-08-16T12:30:45.800Z,48.69
2022-08-16T12:33:25.499Z,47.10
2022-08-16T12:35:58.529Z,44.58
2022-08-16T12:38:40.913Z,43.56
2022-08-16T12:41:24.505Z,43.47
2022-08-16T12:44:01.238Z,43.49
2022-08-16T12:46:34.189Z,43.52
2022-08-16T12:49:06.430Z,43.43
2022-08-16T12:51:59.260Z,42.85
2022-08-16T12:54:33.785Z,41.65
2022-08-16T12:57:14.226Z,39.85
2022-08-16T12:59:49.296Z,38.67
2022-08-16T13:02:33.806Z,37.50
2022-08-16T13:05:08.997Z,36.71
2022-08-16T13:07:51.189Z,35.64
2022-08-16T13:10:37.992Z,35.32
2022-08-16T13:13:12.165Z,35.55
2022-08-16T13:15:51.614Z,36.29
2022-08-16T13:18:32.314Z,37.28
2022-08-16T13:21:07.411Z,37.99
2022-08-16T13:23:43.332Z,38.66
2022-08-16T13:26:17.307Z,38.41
2022-08-16T13:28:50.030Z,38.69
2022-08-16T13:31:25.081Z,38.60
2022-08-16T13:33:58.596Z,38.23
2022-08-16T13:36:48.664Z,37.66
2022-08-16T13:39:24.422Z,36.70
2022-08-16T13:41:56.452Z,36.05
2022-08-16T13:44:39.223Z,36.07
2022-08-16T13:47:21.060Z,36.50
2022-08-16T13:49:53.112Z,36.34
2022-08-16T13:52:26.804Z,36.13
2022-08-16T13:55:06.735Z,36.04
2022-08-16T13:58:34.289Z,34.90
2022-08-16T14:00:41.478Z,34.63
2022-08-16T14:03:14.747Z,33.06
2022-08-16T14:05:51.713Z,32.42
2022-08-16T14:08:27.276Z,31.42
2022-08-16T14:10:59.529Z,30.67
2022-08-16T14:13:34.228Z,29.73
2022-08-16T14:16:12.255Z,28.81
2022-08-16T14:18:59.160Z,28.29
2022-08-16T14:21:35.478Z,28.24
2022-08-16T14:24:16.806Z,27.55
2022-08-16T14:26:59.608Z,27.62
2022-08-16T14:29:38.291Z,27.80
2022-08-16T14:32:26.968Z,27.92
2022-08-16T14:35:07.236Z,27.73
2022-08-16T14:37:42.990Z,28.61
2022-08-16T14:40:17.323Z,28.68
2022-08-16T14:42:50.609Z,28.34
2022-08-16T14:45:27.374Z,28.02
2022-08-16T14:47:59.937Z,27.64
2022-08-16T14:50:33.224Z,27.79
2022-08-16T14:53:08.630Z,28.00
2022-08-16T14:55:41.553Z,28.26
2022-08-16T14:58:19.141Z,29.02
2022-08-16T15:00:52.016Z,29.33
2022-08-16T15:03:25.493Z,29.88
2022-08-16T15:05:58.440Z,30.52
2022-08-16T15:08:36.591Z,30.53
2022-08-16T15:11:09.446Z,31.09
2022-08-16T15:13:41.617Z,30.94
2022-08-16T15:16:13.681Z,31.52
2022-08-16T15:18:46.596Z,31.88
2022-08-16T15:21:18.849Z,32.02
2022-08-16T15:23:50.723Z,32.86
2022-08-16T15:26:34.537Z,33.18
2022-08-16T15:29:17.588Z,33.68
2022-08-16T15:31:49.639Z,33.75
2022-08-16T15:34:33.144Z,34.00
2022-08-16T15:37:05.300Z,34.13
2022-08-16T15:39:39.842Z,34.36
2022-08-16T15:42:27.520Z,34.47
2022-08-16T15:45:11.397Z,34.82
2022-08-16T15:47:52.374Z,34.49
2022-08-16T15:50:28.074Z,34.63
2022-08-16T15:53:12.398Z,35.04
2022-08-16T15:55:45.982Z,35.01
2022-08-16T15:58:35.287Z,34.82
2022-08-16T16:01:10.650Z,35.01
2022-08-16T16:03:42.733Z,35.17
2022-08-16T16:06:20.041Z,35.32
2022-08-16T16:09:00.069Z,35.37
2022-08-16T16:11:32.005Z,35.16
2022-08-16T16:14:06.305Z,35.38
2022-08-16T16:16:39.959Z,35.51
2022-08-16T16:19:18.397Z,35.69
2022-08-16T16:22:03.298Z,35.75
2022-08-16T16:24:35.975Z,35.93
2022-08-16T16:27:08.166Z,35.80
2022-08-16T16:29:40.567Z,35.96
2022-08-16T16:32:12.603Z,36.17
2022-08-16T16:34:47.527Z,36.00
2022-08-16T16:37:19.490Z,36.01
2022-08-16T16:39:51.899Z,36.05
2022-08-16T16:42:29.292Z,35.85
2022-08-16T16:45:04.785Z,35.67
2022-08-16T16:47:41.711Z,35.67
2022-08-16T16:50:16.152Z,35.32
2022-08-16T16:52:56.151Z,35.17
2022-08-16T16:55:28.455Z,35.67
2022-08-16T16:58:28.906Z,35.65
2022-08-16T17:01:08.383Z,35.89
2022-08-16T17:03:40.782Z,36.05
2022-08-16T17:06:12.942Z,36.30
2022-08-16T17:08:46.317Z,36.19
2022-08-16T17:11:19.730Z,36.40
2022-08-16T17:13:53.700Z,36.40
2022-08-16T17:16:32.921Z,36.74
2022-08-16T17:19:16.263Z,36.46
2022-08-16T17:21:50.609Z,36.79
2022-08-16T17:24:31.256Z,38.00
2022-08-16T17:27:11.480Z,39.26
2022-08-16T17:29:51.385Z,39.78
2022-08-16T17:32:34.020Z,40.88
2022-08-16T17:35:24.198Z,41.25
2022-08-16T17:38:09.368Z,41.51
2022-08-16T17:40:58.259Z,42.10
2022-08-16T17:43:36.901Z,42.09
2022-08-16T17:46:50.734Z,42.21
2022-08-16T17:49:09.225Z,42.41
2022-08-16T17:51:41.419Z,42.88
2022-08-16T17:54:30.253Z,43.15
2022-08-16T17:57:03.065Z,43.63
2022-08-16T17:59:36.962Z,44.29
2022-08-16T18:02:42.394Z,44.49
2022-08-16T18:05:05.350Z,44.32
2022-08-16T18:07:37.564Z,44.46
2022-08-16T18:10:11.213Z,44.82
2022-08-16T18:12:54.273Z,45.25
2022-08-16T18:15:28.215Z,44.98
2022-08-16T18:18:00.682Z,44.80
2022-08-16T18:20:51.772Z,44.84
2022-08-16T18:23:25.885Z,45.25
2022-08-16T18:25:59.618Z,45.70
2022-08-16T18:28:32.224Z,45.59
2022-08-16T18:31:08.276Z,45.72
2022-08-16T18:33:43.845Z,45.42
2022-08-16T18:36:20.972Z,45.39
2022-08-16T18:38:53.945Z,44.89
2022-08-16T18:41:27.568Z,45.02
2022-08-16T18:44:25.242Z,45.00
2022-08-16T18:46:51.502Z,45.15
2022-08-16T18:49:23.651Z,45.10
2022-08-16T18:51:57.558Z,45.49
2022-08-16T18:54:31.173Z,45.36
2022-08-16T18:57:07.383Z,45.60
2022-08-16T18:59:40.351Z,45.61
2022-08-16T19:02:56.082Z,46.16
2022-08-16T19:05:04.501Z,46.44
2022-08-16T19:07:36.551Z,46.71
2022-08-16T19:10:08.990Z,46.78
2022-08-16T19:12:42.239Z,46.98
2022-08-16T19:15:18.836Z,47.50
2022-08-16T19:17:50.878Z,47.45
2022-08-16T19:20:24.366Z,47.68
2022-08-16T19:23:05.520Z,47.90
2022-08-16T19:25:48.715Z,48.17
2022-08-16T19:28:49.226Z,48.22
2022-08-16T19:31:37.774Z,48.19
2022-08-16T19:34:11.268Z,48.36
2022-08-16T19:36:43.995Z,48.21
2022-08-16T19:39:16.791Z,48.46
2022-08-16T19:41:53.027Z,48.78
2022-08-16T19:44:27.905Z,48.84
2022-08-16T19:46:59.963Z,48.62
2022-08-16T19:49:32.047Z,48.75
2022-08-16T19:52:22.145Z,48.89
2022-08-16T19:54:57.981Z,48.70
2022-08-16T19:57:30.492Z,48.89
2022-08-16T20:00:02.919Z,48.84
2022-08-16T20:02:47.333Z,48.85
2022-08-16T20:05:24.805Z,48.88
2022-08-16T20:08:02.323Z,48.82
2022-08-16T20:10:36.121Z,48.63
2022-08-16T20:13:15.355Z,48.62
2022-08-16T20:15:48.430Z,48.26
2022-08-16T20:18:25.114Z,48.38
2022-08-16T20:20:57.764Z,48.74
2022-08-16T20:23:29.701Z,48.50
2022-08-16T20:26:01.639Z,48.71
2022-08-16T20:28:51.792Z,49.08
2022-08-16T20:31:25.760Z,49.00
2022-08-16T20:33:57.802Z,49.30
2022-08-16T20:36:29.951Z,49.49
2022-08-16T20:39:04.742Z,49.44
2022-08-16T20:41:36.652Z,49.77
2022-08-16T20:44:10.239Z,49.84
2022-08-16T20:46:42.583Z,50.04
2022-08-16T20:49:14.572Z,49.82
2022-08-16T20:51:50.609Z,49.90
2022-08-16T20:54:23.844Z,49.80
2022-08-16T20:56:55.836Z,50.09
2022-08-16T20:59:28.133Z,49.98
2022-08-16T21:02:00.105Z,50.35
2022-08-16T21:04:32.003Z,50.23
2022-08-16T21:07:04.537Z,50.53
2022-08-16T21:09:37.091Z,50.57
2022-08-16T21:12:11.448Z,50.76
2022-08-16T21:14:45.720Z,50.70
2022-08-16T21:17:17.708Z,50.96
2022-08-16T21:19:49.611Z,50.78
2022-08-16T21:22:22.845Z,50.88
2022-08-16T21:24:56.037Z,51.44
2022-08-16T21:27:31.268Z,51.41
2022-08-16T21:30:05.921Z,51.31
2022-08-16T21:32:41.233Z,51.57
2022-08-16T21:35:15.604Z,51.57
2022-08-16T21:38:09.712Z,51.58
2022-08-16T21:40:40.586Z,51.63
2022-08-16T21:43:19.468Z,51.90
2022-08-16T21:45:55.283Z,52.11
2022-08-16T21:48:34.150Z,51.81
2022-08-16T21:51:10.755Z,52.02
2022-08-16T21:53:43.376Z,52.03
2022-08-16T21:56:17.247Z,52.13
2022-08-16T21:58:52.829Z,51.94
2022-08-16T22:01:25.339Z,52.24
2022-08-16T22:04:01.729Z,52.27
2022-08-16T22:06:49.339Z,52.33
2022-08-16T22:09:21.417Z,52.25
2022-08-16T22:11:53.610Z,52.33
2022-08-16T22:14:25.434Z,52.39
2022-08-16T22:16:57.349Z,52.68
2022-08-16T22:19:29.327Z,52.82
2022-08-16T22:22:01.625Z,52.86
2022-08-16T22:24:33.570Z,52.73
2022-08-16T22:27:05.656Z,52.86
2022-08-16T22:29:39.506Z,53.07
2022-08-16T22:32:14.491Z,52.89
2022-08-16T22:34:46.360Z,52.71
2022-08-16T22:37:18.216Z,52.80
2022-08-16T22:39:50.124Z,53.11
2022-08-16T22:42:23.100Z,52.87
2022-08-16T22:44:55.380Z,53.04
2022-08-16T22:47:27.302Z,53.07
2022-08-16T22:49:59.309Z,53.02
2022-08-16T22:52:46.418Z,53.16
2022-08-16T22:55:25.937Z,53.38
2022-08-16T22:57:58.484Z,53.29
2022-08-16T23:00:33.255Z,53.45
2022-08-16T23:03:08.550Z,53.48
2022-08-16T23:05:52.443Z,53.61
2022-08-16T23:08:38.338Z,53.72
2022-08-16T23:11:21.027Z,53.96
2022-08-16T23:13:54.991Z,54.25
2022-08-16T23:16:30.843Z,54.17
2022-08-16T23:19:08.803Z,54.33
2022-08-16T23:21:44.265Z,54.57
2022-08-16T23:24:19.430Z,54.64
2022-08-16T23:26:51.522Z,54.80
2022-08-16T23:29:26.339Z,54.88
2022-08-16T23:32:08.816Z,55.08
2022-08-16T23:34:40.865Z,55.17
2022-08-16T23:37:12.817Z,55.20
2022-08-16T23:39:44.880Z,55.48
2022-08-16T23:42:53.109Z,55.28
2022-08-16T23:45:09.371Z,55.66
2022-08-16T23:47:41.292Z,55.40
2022-08-16T23:50:14.285Z,55.88
2022-08-16T23:52:57.202Z,56.15
2022-08-16T23:55:30.839Z,56.10
2022-08-16T23:58:03.707Z,56.01
